createdAt,value
2022-09-28T00:01:17.118Z,96616.91
2022-09-28T00:03:46.963Z,96616.56
2022-09-28T00:06:18.628Z,96607.41
2022-09-28T00:08:46.529Z,96603.78
2022-09-28T00:11:16.201Z,96609.72
2022-09-28T00:13:44.662Z,96605.19
2022-09-28T00:16:14.980Z,96602.16
2022-09-28T00:18:43.156Z,96602.50
2022-09-28T00:21:14.780Z,96602.25
2022-09-28T00:23:56.798Z,96598.63
2022-09-28T00:26:25.586Z,96597.28
2022-09-28T00:28:54.276Z,96597.00
2022-09-28T00:31:23.820Z,96592.47
2022-09-28T00:33:53.005Z,96588.91
2022-09-28T00:36:28.267Z,96595.16
2022-09-28T00:39:05.420Z,96593.72
2022-09-28T00:41:34.105Z,96585.91
2022-09-28T00:44:43.259Z,96586.94
2022-09-28T00:47:34.869Z,96593.34
2022-09-28T00:50:03.902Z,96594.34
2022-09-28T00:52:38.655Z,96596.91
2022-09-28T00:55:12.763Z,96592.03
2022-09-28T00:57:49.922Z,96590.00
2022-09-28T01:00:19.397Z,96589.72
2022-09-28T01:02:49.182Z,96600.13
2022-09-28T01:05:25.351Z,96593.19
2022-09-28T01:07:57.490Z,96603.50
2022-09-28T01:10:25.686Z,96594.13
2022-09-28T01:12:53.779Z,96600.13
2022-09-28T01:15:22.917Z,96609.00
2022-09-28T01:17:58.541Z,96598.50
2022-09-28T01:20:51.271Z,96593.97
2022-09-28T01:23:42.579Z,96593.38
2022-09-28T01:26:19.682Z,96597.22
2022-09-28T01:28:49.416Z,96590.34
2022-09-28T01:31:19.223Z,96600.94
2022-09-28T01:33:49.872Z,96591.34
2022-09-28T01:36:22.405Z,96599.50
2022-09-28T01:38:52.774Z,96595.25
2022-09-28T01:41:23.917Z,96599.84
2022-09-28T01:43:56.226Z,96596.13
2022-09-28T01:46:28.257Z,96594.78
2022-09-28T01:48:58.492Z,96603.69
2022-09-28T01:51:33.576Z,96605.72
2022-09-28T01:54:14.277Z,96612.03
2022-09-28T01:56:46.623Z,96612.94
2022-09-28T01:59:16.671Z,96606.31
2022-09-28T02:01:48.491Z,96605.44
2022-09-28T02:04:19.875Z,96617.53
2022-09-28T02:06:50.545Z,96616.28
2022-09-28T02:09:23.027Z,96616.00
2022-09-28T02:11:56.224Z,96615.31
2022-09-28T02:14:25.371Z,96606.41
2022-09-28T02:16:55.184Z,96605.06
2022-09-28T02:19:25.935Z,96606.75
2022-09-28T02:21:59.047Z,96609.72
2022-09-28T02:24:37.104Z,96602.88
2022-09-28T02:27:10.849Z,96607.22
2022-09-28T02:29:38.864Z,96598.91
2022-09-28T02:32:07.176Z,96607.84
2022-09-28T02:34:36.732Z,96602.91
2022-09-28T02:37:05.095Z,96612.44
2022-09-28T02:39:33.648Z,96611.63
2022-09-28T02:42:12.103Z,96594.41
2022-09-28T02:44:54.798Z,96597.94
2022-09-28T02:47:30.412Z,96614.88
2022-09-28T02:50:04.540Z,96607.81
2022-09-28T02:52:44.248Z,96610.09
2022-09-28T02:55:21.880Z,96616.28
2022-09-28T02:58:04.699Z,96611.50
2022-09-28T03:00:34.240Z,96606.16
2022-09-28T03:03:05.640Z,96600.31
2022-09-28T03:05:40.052Z,96607.28
2022-09-28T03:08:12.350Z,96604.41
2022-09-28T03:10:44.570Z,96611.63
2022-09-28T03:13:14.660Z,96613.59
2022-09-28T03:15:48.631Z,96612.28
2022-09-28T03:18:17.552Z,96611.47
2022-09-28T03:20:45.919Z,96613.97
2022-09-28T03:23:24.689Z,96616.13
2022-09-28T03:25:53.849Z,96609.28
2022-09-28T03:28:23.373Z,96617.63
2022-09-28T03:30:51.675Z,96616.66
2022-09-28T03:33:20.366Z,96609.41
2022-09-28T03:35:49.629Z,96610.91
2022-09-28T03:38:18.375Z,96610.50
2022-09-28T03:40:47.031Z,96619.19
2022-09-28T03:43:15.154Z,96618.88
2022-09-28T03:45:44.682Z,96629.09
2022-09-28T03:48:14.836Z,96639.53
2022-09-28T03:50:42.967Z,96623.88
2022-09-28T03:53:11.172Z,96627.47
2022-09-28T03:55:39.470Z,96624.47
2022-09-28T03:58:07.691Z,96624.56
2022-09-28T04:00:35.886Z,96629.38
2022-09-28T04:03:06.129Z,96628.03
2022-09-28T04:05:34.274Z,96630.03
2022-09-28T04:08:02.670Z,96628.50
2022-09-28T04:10:31.227Z,96635.25
2022-09-28T04:12:59.839Z,96630.56
2022-09-28T04:15:27.845Z,96627.03
2022-09-28T04:17:56.174Z,96623.66
2022-09-28T04:20:25.825Z,96628.91
2022-09-28T04:22:54.177Z,96627.00
2022-09-28T04:25:22.428Z,96626.47
2022-09-28T04:28:19.384Z,96620.13
2022-09-28T04:30:47.903Z,96621.34
2022-09-28T04:33:16.235Z,96612.91
2022-09-28T04:35:47.215Z,96609.09
2022-09-28T04:38:15.583Z,96610.25
2022-09-28T04:40:43.903Z,96621.00
2022-09-28T04:43:11.946Z,96618.19
2022-09-28T04:45:40.184Z,96620.00
2022-09-28T04:48:08.707Z,96618.00
2022-09-28T04:50:36.798Z,96615.88
2022-09-28T04:53:06.743Z,96616.44
2022-09-28T04:55:34.815Z,96624.94
2022-09-28T04:58:05.269Z,96630.97
2022-09-28T05:00:36.035Z,96619.25
2022-09-28T05:03:04.289Z,96622.84
2022-09-28T05:05:32.365Z,96618.72
2022-09-28T05:08:00.895Z,96617.97
2022-09-28T05:10:30.342Z,96620.25
2022-09-28T05:12:58.458Z,96620.88
2022-09-28T05:15:26.698Z,96613.56
2022-09-28T05:17:54.825Z,96611.25
2022-09-28T05:20:23.065Z,96620.09
2022-09-28T05:22:51.447Z,96623.31
2022-09-28T05:25:19.839Z,96621.59
2022-09-28T05:27:49.543Z,96633.13
2022-09-28T05:30:19.076Z,96625.38
2022-09-28T05:32:47.402Z,96621.47
2022-09-28T05:35:15.419Z,96630.56
2022-09-28T05:37:43.954Z,96617.59
2022-09-28T05:40:12.791Z,96616.47
2022-09-28T05:42:41.031Z,96614.31
2022-09-28T05:45:11.505Z,96632.16
2022-09-28T05:47:40.816Z,96627.38
2022-09-28T05:50:12.001Z,96630.81
2022-09-28T05:52:40.371Z,96625.59
2022-09-28T05:55:09.465Z,96639.50
2022-09-28T05:57:37.619Z,96628.56
2022-09-28T06:00:08.132Z,96626.75
2022-09-28T06:02:37.967Z,96624.00
2022-09-28T06:05:07.527Z,96621.41
2022-09-28T06:07:35.640Z,96622.28
2022-09-28T06:10:03.649Z,96628.00
2022-09-28T06:12:31.945Z,96628.34
2022-09-28T06:15:00.833Z,96623.81
2022-09-28T06:17:29.514Z,96617.75
2022-09-28T06:19:59.306Z,96623.03
2022-09-28T06:22:27.456Z,96623.41
2022-09-28T06:24:55.653Z,96616.59
2022-09-28T06:27:23.986Z,96613.78
2022-09-28T06:29:52.214Z,96604.13
2022-09-28T06:32:20.229Z,96596.78
2022-09-28T06:34:50.744Z,96607.78
2022-09-28T06:37:23.577Z,96605.13
2022-09-28T06:39:52.215Z,96595.97
2022-09-28T06:42:20.234Z,96600.34
2022-09-28T06:44:48.362Z,96602.72
2022-09-28T06:47:17.784Z,96612.88
2022-09-28T06:49:51.488Z,96605.47
2022-09-28T06:52:19.941Z,96615.66
2022-09-28T06:54:49.537Z,96615.31
2022-09-28T06:57:17.849Z,96616.63
2022-09-28T06:59:46.159Z,96606.25
2022-09-28T07:02:14.916Z,96611.19
2022-09-28T07:04:43.429Z,96616.91
2022-09-28T07:07:11.791Z,96608.56
2022-09-28T07:09:44.944Z,96612.19
2022-09-28T07:12:17.836Z,96617.88
2022-09-28T07:14:48.226Z,96619.03
2022-09-28T07:17:16.935Z,96611.75
2022-09-28T07:19:45.329Z,96604.53
2022-09-28T07:22:18.811Z,96602.81
2022-09-28T07:24:49.081Z,96605.28
2022-09-28T07:27:20.160Z,96606.22
2022-09-28T07:29:48.242Z,96597.34
2022-09-28T07:32:16.512Z,96608.22
2022-09-28T07:34:44.771Z,96610.59
2022-09-28T07:37:13.467Z,96606.75
2022-09-28T07:39:59.709Z,96599.84
2022-09-28T07:42:30.194Z,96604.13
2022-09-28T07:44:59.269Z,96598.25
2022-09-28T07:47:33.889Z,96595.31
2022-09-28T07:50:03.365Z,96599.53
2022-09-28T07:52:31.552Z,96588.69
2022-09-28T07:55:03.329Z,96587.47
2022-09-28T07:57:36.441Z,96604.41
2022-09-28T08:00:07.251Z,96604.88
2022-09-28T08:02:35.905Z,96601.25
2022-09-28T08:05:04.365Z,96602.97
2022-09-28T08:07:34.530Z,96603.72
2022-09-28T08:10:02.920Z,96604.31
2022-09-28T08:12:31.078Z,96598.66
2022-09-28T08:15:01.389Z,96602.78
2022-09-28T08:17:29.728Z,96610.59
2022-09-28T08:20:15.297Z,96595.63
2022-09-28T08:22:43.573Z,96587.72
2022-09-28T08:25:11.928Z,96597.09
2022-09-28T08:27:40.046Z,96586.34
2022-09-28T08:30:11.348Z,96585.91
2022-09-28T08:32:39.567Z,96587.28
2022-09-28T08:35:08.223Z,96582.53
2022-09-28T08:37:36.571Z,96573.25
2022-09-28T08:40:05.307Z,96581.69
2022-09-28T08:42:36.185Z,96576.53
2022-09-28T08:45:07.699Z,96574.00
2022-09-28T08:47:59.028Z,96576.22
2022-09-28T08:50:28.684Z,96583.94
2022-09-28T08:53:00.725Z,96579.50
2022-09-28T08:55:32.304Z,96587.22
2022-09-28T08:58:03.051Z,96581.66
2022-09-28T09:00:35.361Z,96584.00
2022-09-28T09:03:07.252Z,96577.78
2022-09-28T09:05:48.769Z,96579.47
2022-09-28T09:08:42.331Z,96578.19
2022-09-28T09:11:17.233Z,96574.81
2022-09-28T09:14:14.946Z,96583.38
2022-09-28T09:17:00.001Z,96575.22
2022-09-28T09:19:36.827Z,96585.78
2022-09-28T09:22:12.705Z,96591.31
2022-09-28T09:24:48.977Z,96584.13
2022-09-28T09:27:32.841Z,96586.41
2022-09-28T09:30:06.305Z,96599.78
2022-09-28T09:32:45.181Z,96591.84
2022-09-28T09:35:32.074Z,96583.91
2022-09-28T09:38:10.812Z,96589.31
2022-09-28T09:40:58.843Z,96573.56
2022-09-28T09:44:01.246Z,96568.34
2022-09-28T09:46:35.544Z,96586.72
2022-09-28T09:49:08.760Z,96580.44
2022-09-28T09:51:44.226Z,96585.41
2022-09-28T09:54:17.880Z,96588.66
2022-09-28T09:56:50.217Z,96579.81
2022-09-28T09:59:21.252Z,96563.13
2022-09-28T10:01:49.786Z,96560.44
2022-09-28T10:04:22.489Z,96574.34
2022-09-28T10:06:54.055Z,96567.00
2022-09-28T10:09:26.134Z,96577.00
2022-09-28T10:11:54.749Z,96566.06
2022-09-28T10:14:25.115Z,96561.22
2022-09-28T10:16:54.399Z,96565.97
2022-09-28T10:19:29.655Z,96559.97
2022-09-28T10:22:02.680Z,96558.72
2022-09-28T10:24:32.663Z,96555.91
2022-09-28T10:27:05.986Z,96567.78
2022-09-28T10:29:41.885Z,96553.81
2022-09-28T10:32:20.632Z,96539.59
2022-09-28T10:34:50.978Z,96548.88
2022-09-28T10:37:20.914Z,96549.53
2022-09-28T10:39:53.349Z,96544.63
2022-09-28T10:42:23.959Z,96542.31
2022-09-28T10:44:55.638Z,96532.50
2022-09-28T10:47:25.465Z,96518.81
2022-09-28T10:49:55.451Z,96514.06
2022-09-28T10:52:38.892Z,96506.31
2022-09-28T10:55:32.452Z,96514.53
2022-09-28T10:58:01.185Z,96503.34
2022-09-28T11:00:33.185Z,96506.72
2022-09-28T11:03:01.515Z,96511.94
2022-09-28T11:05:30.464Z,96496.31
2022-09-28T11:08:01.766Z,96485.94
2022-09-28T11:10:31.493Z,96486.47
2022-09-28T11:13:01.008Z,96492.63
2022-09-28T11:15:31.110Z,96481.66
2022-09-28T11:18:19.509Z,96481.75
2022-09-28T11:20:49.431Z,96482.28
2022-09-28T11:23:21.956Z,96482.53
2022-09-28T11:26:01.356Z,96466.25
2022-09-28T11:28:33.299Z,96470.63
2022-09-28T11:31:02.798Z,96477.34
2022-09-28T11:33:34.228Z,96477.34
2022-09-28T11:36:20.158Z,96473.88
2022-09-28T11:38:55.373Z,96479.03
2022-09-28T11:41:38.443Z,96491.94
2022-09-28T11:44:22.904Z,96469.19
2022-09-28T11:46:58.347Z,96456.59
2022-09-28T11:49:32.702Z,96468.03
2022-09-28T11:52:03.763Z,96472.03
2022-09-28T11:54:40.100Z,96457.84
2022-09-28T11:57:14.035Z,96465.28
2022-09-28T11:59:51.541Z,96460.56
2022-09-28T12:02:23.460Z,96450.28
2022-09-28T12:04:55.408Z,96450.25
2022-09-28T12:07:27.602Z,96461.31
2022-09-28T12:10:00.055Z,96459.41
2022-09-28T12:12:32.915Z,96456.19
2022-09-28T12:15:04.717Z,96452.50
2022-09-28T12:17:37.778Z,96455.88
2022-09-28T12:20:14.133Z,96455.97
2022-09-28T12:22:47.352Z,96464.44
2022-09-28T12:25:20.962Z,96456.78
2022-09-28T12:27:52.079Z,96448.50
2022-09-28T12:30:21.305Z,96450.63
2022-09-28T12:32:52.032Z,96448.31
2022-09-28T12:35:28.821Z,96446.75
2022-09-28T12:38:21.514Z,96435.59
2022-09-28T12:40:54.603Z,96432.56
2022-09-28T12:43:34.459Z,96423.88
2022-09-28T12:46:32.614Z,96431.38
2022-09-28T12:50:36.628Z,96432.66
2022-09-28T12:52:30.329Z,96430.19
2022-09-28T12:55:24.886Z,96432.91
2022-09-28T12:58:01.421Z,96425.59
2022-09-28T13:00:35.864Z,96431.06
2022-09-28T13:03:31.559Z,96427.34
2022-09-28T13:06:22.820Z,96429.03
2022-09-28T13:09:02.035Z,96429.72
2022-09-28T13:11:34.716Z,96438.81
2022-09-28T13:14:26.843Z,96431.31
2022-09-28T13:17:00.628Z,96426.31
2022-09-28T13:19:34.778Z,96424.28
2022-09-28T13:22:14.737Z,96418.78
2022-09-28T13:24:44.337Z,96428.78
2022-09-28T13:27:16.083Z,96427.13
2022-09-28T13:29:45.805Z,96427.66
2022-09-28T13:32:15.216Z,96432.09
2022-09-28T13:34:43.404Z,96441.34
2022-09-28T13:37:23.077Z,96426.88
2022-09-28T13:39:53.248Z,96423.44
2022-09-28T13:42:51.208Z,96417.34
2022-09-28T13:45:58.981Z,96419.44
2022-09-28T13:48:38.526Z,96418.25
2022-09-28T13:51:13.614Z,96412.72
2022-09-28T13:54:04.547Z,96414.34
2022-09-28T13:56:38.941Z,96407.97
2022-09-28T13:59:15.124Z,96404.00
2022-09-28T14:01:47.116Z,96402.41
2022-09-28T14:04:21.015Z,96409.16
2022-09-28T14:06:55.503Z,96403.59
2022-09-28T14:09:41.240Z,96393.72
2022-09-28T14:12:29.725Z,96391.31
2022-09-28T14:14:58.365Z,96390.84
2022-09-28T14:17:51.387Z,96386.91
2022-09-28T14:20:25.096Z,96385.72
2022-09-28T14:23:25.423Z,96384.94
2022-09-28T14:26:05.798Z,96384.53
2022-09-28T14:28:45.626Z,96387.31
2022-09-28T14:31:19.069Z,96380.88
2022-09-28T14:33:56.938Z,96387.31
2022-09-28T14:36:46.641Z,96390.44
2022-09-28T14:39:38.808Z,96380.16
2022-09-28T14:42:12.875Z,96378.50
2022-09-28T14:45:19.191Z,96380.94
2022-09-28T14:48:20.524Z,96365.06
2022-09-28T14:50:50.110Z,96372.53
2022-09-28T14:53:22.279Z,96369.78
2022-09-28T14:55:52.496Z,96366.94
2022-09-28T14:58:24.257Z,96359.81
2022-09-28T15:00:57.981Z,96364.22
2022-09-28T15:03:28.614Z,96357.03
2022-09-28T15:05:56.857Z,96351.00
2022-09-28T15:08:37.658Z,96360.25
2022-09-28T15:11:06.320Z,96359.38
2022-09-28T15:13:34.586Z,96360.13
2022-09-28T15:16:09.941Z,96367.72
2022-09-28T15:19:08.066Z,96370.22
2022-09-28T15:21:37.967Z,96376.75
2022-09-28T15:24:31.631Z,96374.53
2022-09-28T15:27:00.051Z,96383.03
2022-09-28T15:29:31.752Z,96379.84
2022-09-28T15:32:00.195Z,96377.88
2022-09-28T15:34:47.171Z,96368.41
2022-09-28T15:37:16.712Z,96372.06
2022-09-28T15:39:48.413Z,96388.75
2022-09-28T15:42:18.601Z,96407.78
2022-09-28T15:45:02.576Z,96417.47
2022-09-28T15:47:32.121Z,96422.38
2022-09-28T15:50:01.959Z,96436.22
2022-09-28T15:52:36.633Z,96432.84
2022-09-28T15:55:19.351Z,96428.28
2022-09-28T15:57:48.462Z,96414.28
2022-09-28T16:00:28.891Z,96414.41
2022-09-28T16:03:01.738Z,96417.59
2022-09-28T16:05:34.211Z,96413.38
2022-09-28T16:08:03.559Z,96402.59
2022-09-28T16:10:35.966Z,96398.53
2022-09-28T16:13:17.229Z,96403.06
2022-09-28T16:15:45.394Z,96402.66
2022-09-28T16:18:19.207Z,96411.19
2022-09-28T16:20:49.734Z,96424.28
2022-09-28T16:23:22.571Z,96426.50
2022-09-28T16:25:56.755Z,96417.06
2022-09-28T16:28:49.188Z,96417.34
2022-09-28T16:31:27.970Z,96418.66
2022-09-28T16:33:59.109Z,96424.16
2022-09-28T16:36:29.955Z,96423.22
2022-09-28T16:38:58.352Z,96421.16
2022-09-28T16:41:29.016Z,96418.75
2022-09-28T16:44:01.158Z,96408.50
2022-09-28T16:46:32.544Z,96410.28
2022-09-28T16:49:03.350Z,96396.88
2022-09-28T16:51:31.460Z,96413.34
2022-09-28T16:54:19.133Z,96408.06
2022-09-28T16:56:48.806Z,96414.63
2022-09-28T16:59:17.052Z,96418.09
2022-09-28T17:01:45.291Z,96419.63
2022-09-28T17:04:13.629Z,96424.47
2022-09-28T17:06:43.623Z,96429.63
2022-09-28T17:09:13.948Z,96428.28
2022-09-28T17:11:42.277Z,96426.72
2022-09-28T17:14:11.957Z,96434.66
2022-09-28T17:17:06.771Z,96439.81
2022-09-28T17:19:29.941Z,96438.25
2022-09-28T17:21:58.347Z,96440.66
2022-09-28T17:24:26.658Z,96443.88
2022-09-28T17:26:55.183Z,96436.28
2022-09-28T17:29:24.698Z,96444.22
2022-09-28T17:31:53.103Z,96448.44
2022-09-28T17:34:21.811Z,96439.84
2022-09-28T17:36:50.201Z,96445.50
2022-09-28T17:39:19.639Z,96447.34
2022-09-28T17:41:48.214Z,96453.44
2022-09-28T17:44:16.766Z,96454.94
2022-09-28T17:46:49.242Z,96455.81
2022-09-28T17:49:18.996Z,96467.97
2022-09-28T17:51:47.239Z,96463.22
2022-09-28T17:54:19.454Z,96466.38
2022-09-28T17:56:47.924Z,96484.44
2022-09-28T17:59:18.700Z,96495.50
2022-09-28T18:01:48.566Z,96487.59
2022-09-28T18:04:33.768Z,96494.44
2022-09-28T18:07:05.441Z,96485.53
2022-09-28T18:09:33.888Z,96482.81
2022-09-28T18:12:05.421Z,96492.44
2022-09-28T18:14:36.002Z,96486.84
2022-09-28T18:17:05.968Z,96496.38
2022-09-28T18:19:34.211Z,96505.53
2022-09-28T18:22:02.636Z,96505.03
2022-09-28T18:24:32.677Z,96515.25
2022-09-28T18:27:01.165Z,96521.63
2022-09-28T18:29:33.038Z,96515.66
2022-09-28T18:32:02.730Z,96508.03
2022-09-28T18:34:32.476Z,96500.53
2022-09-28T18:37:00.753Z,96503.75
2022-09-28T18:39:29.280Z,96503.97
2022-09-28T18:41:58.169Z,96502.63
2022-09-28T18:44:26.916Z,96508.88
2022-09-28T18:46:55.591Z,96512.34
2022-09-28T18:49:24.468Z,96512.84
2022-09-28T18:51:54.301Z,96511.47
2022-09-28T18:54:23.017Z,96523.41
2022-09-28T18:56:51.421Z,96520.34
2022-09-28T18:59:20.053Z,96528.88
2022-09-28T19:01:48.504Z,96529.50
2022-09-28T19:04:16.925Z,96538.63
2022-09-28T19:06:47.598Z,96530.16
2022-09-28T19:09:19.877Z,96529.84
2022-09-28T19:11:48.334Z,96536.13
2022-09-28T19:14:17.202Z,96540.56
2022-09-28T19:16:46.296Z,96532.88
2022-09-28T19:19:19.413Z,96537.16
2022-09-28T19:21:48.146Z,96532.00
2022-09-28T19:24:19.344Z,96531.38
2022-09-28T19:26:47.574Z,96528.31
2022-09-28T19:29:16.294Z,96542.16
2022-09-28T19:31:44.666Z,96534.97
2022-09-28T19:34:14.234Z,96538.16
2022-09-28T19:36:43.144Z,96546.94
2022-09-28T19:39:14.666Z,96551.09
2022-09-28T19:41:47.931Z,96548.78
2022-09-28T19:44:24.784Z,96566.28
2022-09-28T19:46:54.751Z,96556.41
2022-09-28T19:49:24.176Z,96562.81
2022-09-28T19:52:13.761Z,96558.47
2022-09-28T19:54:44.975Z,96573.44
2022-09-28T19:57:16.053Z,96583.59
2022-09-28T19:59:44.377Z,96572.03
2022-09-28T20:02:13.458Z,96575.91
2022-09-28T20:04:41.567Z,96576.38
2022-09-28T20:07:10.868Z,96579.25
2022-09-28T20:09:39.448Z,96574.06
2022-09-28T20:12:07.592Z,96559.38
2022-09-28T20:14:39.658Z,96574.03
2022-09-28T20:17:08.875Z,96579.94
2022-09-28T20:19:37.114Z,96586.09
2022-09-28T20:22:05.532Z,96602.19
2022-09-28T20:24:33.941Z,96611.00
2022-09-28T20:27:03.030Z,96608.28
2022-09-28T20:29:33.580Z,96620.75
2022-09-28T20:32:04.340Z,96626.16
2022-09-28T20:34:33.613Z,96623.06
2022-09-28T20:37:02.084Z,96613.47
2022-09-28T20:39:30.377Z,96607.16
2022-09-28T20:41:58.740Z,96607.22
2022-09-28T20:44:26.861Z,96605.03
2022-09-28T20:46:56.361Z,96614.28
2022-09-28T20:49:27.273Z,96624.19
2022-09-28T20:51:55.466Z,96618.06
2022-09-28T20:54:23.468Z,96633.84
2022-09-28T20:56:51.835Z,96629.22
2022-09-28T20:59:20.346Z,96625.91
2022-09-28T21:01:48.571Z,96624.47
2022-09-28T21:04:16.895Z,96625.28
2022-09-28T21:06:46.434Z,96631.31
2022-09-28T21:09:14.650Z,96644.66
2022-09-28T21:11:43.139Z,96647.91
2022-09-28T21:14:11.245Z,96647.06
2022-09-28T21:16:40.146Z,96646.72
2022-09-28T21:19:08.413Z,96654.22
2022-09-28T21:21:36.441Z,96638.44
2022-09-28T21:24:06.162Z,96646.84
2022-09-28T21:26:35.269Z,96648.75
2022-09-28T21:29:05.072Z,96646.84
2022-09-28T21:31:38.366Z,96647.88
2022-09-28T21:34:06.944Z,96647.81
2022-09-28T21:36:35.142Z,96647.72
2022-09-28T21:39:07.007Z,96637.97
2022-09-28T21:41:39.545Z,96663.16
2022-09-28T21:44:08.233Z,96676.25
2022-09-28T21:46:37.080Z,96680.56
2022-09-28T21:49:07.579Z,96687.81
2022-09-28T21:51:36.128Z,96692.91
2022-09-28T21:54:04.355Z,96697.69
2022-09-28T21:56:32.705Z,96694.41
2022-09-28T21:59:02.566Z,96689.63
2022-09-28T22:01:31.419Z,96709.38
2022-09-28T22:03:59.858Z,96702.56
2022-09-28T22:06:29.162Z,96700.25
2022-09-28T22:08:57.938Z,96688.25
2022-09-28T22:11:28.083Z,96687.50
2022-09-28T22:13:57.492Z,96697.84
2022-09-28T22:16:29.350Z,96695.44
2022-09-28T22:18:58.022Z,96695.81
2022-09-28T22:21:30.436Z,96696.53
2022-09-28T22:24:01.268Z,96696.00
2022-09-28T22:26:31.823Z,96702.44
2022-09-28T22:29:01.434Z,96707.66
2022-09-28T22:31:32.642Z,96712.13
2022-09-28T22:34:00.769Z,96712.72
2022-09-28T22:36:29.755Z,96724.91
2022-09-28T22:38:58.599Z,96724.66
2022-09-28T22:41:26.999Z,96727.97
2022-09-28T22:43:55.767Z,96727.13
2022-09-28T22:46:25.221Z,96726.78
2022-09-28T22:48:56.087Z,96727.84
2022-09-28T22:51:26.042Z,96734.41
2022-09-28T22:53:54.266Z,96734.94
2022-09-28T22:56:22.407Z,96735.31
2022-09-28T22:58:50.856Z,96738.88
2022-09-28T23:01:21.185Z,96738.63
2022-09-28T23:03:50.371Z,96747.44
2022-09-28T23:06:22.140Z,96739.94
2022-09-28T23:08:51.906Z,96747.66
2022-09-28T23:11:20.782Z,96740.09
2022-09-28T23:13:52.558Z,96748.34
2022-09-28T23:16:23.466Z,96742.72
2022-09-28T23:18:52.568Z,96741.25
2022-09-28T23:21:24.493Z,96739.28
2022-09-28T23:23:54.421Z,96732.03
2022-09-28T23:26:24.796Z,96731.47
2022-09-28T23:28:53.477Z,96723.38
2022-09-28T23:31:23.168Z,96725.41
2022-09-28T23:33:51.510Z,96730.63
2022-09-28T23:36:21.019Z,96719.22
2022-09-28T23:38:49.462Z,96732.22
2022-09-28T23:41:17.518Z,96732.06
2022-09-28T23:43:45.740Z,96739.88
2022-09-28T23:46:19.636Z,96746.00
2022-09-28T23:48:48.862Z,96745.41
2022-09-28T23:51:17.168Z,96752.53
2022-09-28T23:53:46.800Z,96758.84
2022-09-28T23:56:15.586Z,96758.56
2022-09-28T23:58:44.033Z,96766.75
